NCAR-RAP Real-Time Weather Data

Output produced by METARs form (19 June 2019  10:40 UTC)
found at http://weather.rap.ucar.edu/surface/
 
K8D3 190956Z AUTO 00000KT 11/10 A2986 RMK AO1 SLP101 T01060100
K8D3 190856Z AUTO 00000KT 12/11 A2987 RMK AO1 SLP104 T01170106 56012
K8D3 190756Z AUTO 00000KT 12/11 A2987 RMK AO1 SLP104 T01170106
K8D3 190656Z AUTO 00000KT 13/11 A2989 RMK AO1 SLP112 T01280106
K8D3 190556Z AUTO 00000KT 13/11 A2990 RMK AO1 SLP117 T01330111 10239 20133 402440106 58001
K8D3 190456Z AUTO 28003KT 14/11 A2990 RMK AO1 SLP118 T01390111
K8D3 190356Z AUTO 00000KT 16/11 A2991 RMK AO1 SLP117 T01610111
K8D3 190256Z AUTO 08004KT 18/11 A2991 RMK AO1 SLP116 T01830106 53005
K8D3 190156Z AUTO 04004KT 21/11 A2990 RMK AO1 SLP113 T02060106
K8D3 190056Z AUTO 02006KT 22/10 A2989 RMK AO1 SLP111 T02170100
K8D3 182356Z AUTO 35009KT 24/10 A2989 RMK AO1 SLP111 T02390100 10244 20211 56014
K8D3 182256Z AUTO 35008KT 24/10 A2990 RMK AO1 SLP115 T02390100
K8D3 182156Z AUTO 36010KT 24/10 A2991 RMK AO1 SLP120 T02390100
K8D3 182056Z AUTO 35004KT 24/10 A2993 RMK AO1 SLP126 T02390100 58015
K8D3 181956Z AUTO 31006KT 23/10 A2995 RMK AO1 SLP132 T02330100
K8D3 181856Z AUTO 01007KT 23/11 A2997 RMK AO1 SLP139 T02280106
K8D3 181756Z AUTO 32008KT 21/11 A2998 RMK AO1 SLP144 T02110111 10217 20133 56015
K8D3 181656Z AUTO 34009G17KT 21/12 A2999 RMK AO1 SLP148 T02060117
K8D3 181556Z AUTO 34007G15KT 20/12 A3001 RMK AO1 SLP153 T02000117
K8D3 181456Z AUTO 30006KT 18/12 A3002 RMK AO1 SLP159 T01830122 50003